Time;durP1;ratioP1;P1;durP2;ratioP2;P2;SDS_P1;SDS_P2;PMS_P1;PMS_P2;Temp;Humidity;BMP_temperature;BMP_pressure;BME280_temperature;BME280_humidity;BME280_pressure;Samples;Min_cycle;Max_cycle;Signal;HPM_P1;HPM_P2
2022/02/26 00:01:14;;;;;;;11.98;2.63;;;5.10;79.10;;;;;;5019612;28;20103;-76
2022/02/26 00:03:40;;;;;;;7.35;2.47;;;5.10;79.10;;;;;;5015177;28;20033;-75
2022/02/26 00:06:05;;;;;;;11.65;2.65;;;5.00;79.00;;;;;;5011189;28;20104;-75
2022/02/26 00:08:31;;;;;;;9.15;2.50;;;5.00;79.20;;;;;;5008952;28;20050;-74
2022/02/26 00:10:57;;;;;;;9.55;2.85;;;4.90;79.30;;;;;;5011521;28;20117;-75
2022/02/26 00:13:22;;;;;;;6.20;2.10;;;4.90;79.40;;;;;;5021736;28;20079;-76
2022/02/26 00:15:48;;;;;;;9.45;2.70;;;4.90;79.40;;;;;;5012388;28;20017;-75
2022/02/26 00:18:13;;;;;;;7.60;2.45;;;4.90;79.50;;;;;;5010738;28;20032;-75
2022/02/26 00:20:39;;;;;;;7.88;2.55;;;4.80;79.50;;;;;;5014873;28;20022;-75
2022/02/26 00:23:05;;;;;;;9.18;2.30;;;4.90;79.50;;;;;;5018802;28;20049;-76
2022/02/26 00:25:31;;;;;;;8.75;2.60;;;4.90;79.30;;;;;;5012263;28;20428;-75
2022/02/26 00:27:57;;;;;;;7.90;2.38;;;4.80;79.30;;;;;;5017920;28;20033;-76
2022/02/26 00:30:22;;;;;;;5.70;2.08;;;4.80;79.60;;;;;;5012521;28;20109;-76
2022/02/26 00:32:48;;;;;;;9.15;2.53;;;4.80;79.60;;;;;;5018649;28;20124;-75
2022/02/26 00:35:13;;;;;;;8.80;2.40;;;4.80;79.50;;;;;;5013356;28;20034;-76
2022/02/26 00:37:39;;;;;;;9.48;2.15;;;4.80;79.60;;;;;;5018464;28;20026;-74
2022/02/26 00:40:06;;;;;;;6.38;2.53;;;4.80;79.60;;;;;;5013384;28;20463;-74
2022/02/26 00:42:32;;;;;;;6.82;2.10;;;4.80;79.50;;;;;;5019463;28;20025;-74
2022/02/26 00:44:59;;;;;;;8.35;2.58;;;4.70;79.40;;;;;;5009238;28;20021;-73
2022/02/26 00:47:24;;;;;;;6.22;2.25;;;4.80;79.60;;;;;;5017864;28;20120;-74
2022/02/26 00:49:50;;;;;;;8.43;2.40;;;4.70;79.60;;;;;;5009693;28;20045;-73
2022/02/26 00:52:23;;;;;;;7.93;2.63;;;4.70;79.60;;;;;;5014289;28;20045;-74
2022/02/26 00:54:49;;;;;;;12.45;2.97;;;4.70;79.60;;;;;;5027375;28;20021;-74
2022/02/26 00:57:16;;;;;;;5.60;2.33;;;4.70;79.50;;;;;;5017260;28;20116;-74
2022/02/26 00:59:42;;;;;;;7.13;2.30;;;4.60;79.50;;;;;;5019289;28;20045;-74
2022/02/26 01:02:08;;;;;;;8.25;2.40;;;4.60;79.70;;;;;;5009034;28;20022;-74
2022/02/26 01:04:36;;;;;;;7.72;2.53;;;4.60;79.90;;;;;;5024376;28;20713;-74
2022/02/26 01:07:02;;;;;;;11.50;2.95;;;4.60;79.90;;;;;;5018355;28;20069;-74
2022/02/26 01:09:28;;;;;;;9.25;2.72;;;4.60;79.80;;;;;;5019242;28;20167;-75
2022/02/26 01:11:54;;;;;;;9.82;2.30;;;4.50;79.80;;;;;;5009972;28;20488;-75
2022/02/26 01:14:20;;;;;;;9.43;2.85;;;4.50;79.90;;;;;;5023823;28;20116;-76
2022/02/26 01:16:46;;;;;;;5.75;2.22;;;4.50;79.90;;;;;;5018686;28;20379;-75
2022/02/26 01:19:11;;;;;;;7.93;3.00;;;4.50;79.90;;;;;;5016536;28;20116;-75
2022/02/26 01:21:37;;;;;;;7.60;2.28;;;4.40;79.90;;;;;;5016615;28;20377;-74
2022/02/26 01:24:03;;;;;;;9.38;2.13;;;4.40;79.90;;;;;;5017323;28;20034;-74
2022/02/26 01:26:29;;;;;;;7.72;2.30;;;4.40;79.80;;;;;;5008971;28;20030;-75
2022/02/26 01:28:54;;;;;;;9.60;2.60;;;4.30;79.90;;;;;;5018077;28;20026;-75
2022/02/26 01:31:20;;;;;;;8.23;2.60;;;4.40;80.10;;;;;;5011453;28;20104;-75
2022/02/26 01:33:46;;;;;;;7.65;2.38;;;4.40;80.00;;;;;;5019889;28;20077;-74
2022/02/26 01:36:12;;;;;;;6.95;2.15;;;4.40;79.80;;;;;;5012500;28;20022;-75
2022/02/26 01:38:38;;;;;;;6.60;2.20;;;4.40;79.70;;;;;;5013090;28;20045;-75
2022/02/26 01:41:05;;;;;;;8.38;2.30;;;4.30;79.80;;;;;;5011908;28;20029;-75
2022/02/26 01:43:33;;;;;;;5.95;2.17;;;4.30;79.80;;;;;;5021081;28;20022;-75
2022/02/26 01:45:59;;;;;;;7.80;2.45;;;4.30;79.80;;;;;;5008995;28;20404;-75
2022/02/26 01:48:24;;;;;;;7.28;2.40;;;4.30;79.80;;;;;;5018507;28;20034;-75
2022/02/26 01:50:50;;;;;;;10.77;2.55;;;4.30;79.70;;;;;;5019717;28;20041;-75
2022/02/26 01:53:16;;;;;;;9.10;2.40;;;4.20;79.50;;;;;;5021294;28;20392;-75
2022/02/26 01:55:41;;;;;;;8.30;2.67;;;4.20;79.60;;;;;;5011944;28;20022;-75
2022/02/26 01:58:07;;;;;;;9.30;2.65;;;4.00;79.70;;;;;;5009898;28;20500;-75
2022/02/26 02:00:33;;;;;;;8.95;3.20;;;4.00;80.60;;;;;;5020026;28;20029;-75
2022/02/26 02:02:58;;;;;;;7.57;2.97;;;4.00;79.90;;;;;;5017936;28;20435;-75
2022/02/26 02:05:28;;;;;;;9.35;3.03;;;4.00;79.80;;;;;;5015641;28;20381;-75
2022/02/26 02:07:58;;;;;;;9.13;2.80;;;4.00;79.70;;;;;;5014530;28;20046;-75
2022/02/26 02:10:24;;;;;;;8.45;2.40;;;3.90;79.60;;;;;;5019093;28;20072;-75
2022/02/26 02:12:50;;;;;;;7.30;2.80;;;3.90;79.70;;;;;;5012893;28;20440;-75
2022/02/26 02:15:33;;;;;;;8.63;2.55;;;3.90;79.80;;;;;;5016354;28;20105;-78
2022/02/26 02:17:59;;;;;;;8.18;3.00;;;3.90;79.80;;;;;;5022362;28;20502;-74
2022/02/26 02:20:25;;;;;;;7.68;2.50;;;3.90;79.60;;;;;;5019773;28;20037;-74
2022/02/26 02:22:50;;;;;;;8.73;2.72;;;3.90;79.60;;;;;;5015653;28;20053;-75
2022/02/26 02:25:18;;;;;;;9.80;2.67;;;3.90;80.40;;;;;;5018901;28;20113;-75
2022/02/26 02:27:43;;;;;;;6.90;2.72;;;3.80;79.70;;;;;;5020446;28;20021;-75
2022/02/26 02:30:10;;;;;;;5.63;2.40;;;3.80;79.80;;;;;;5013435;28;20029;-75
2022/02/26 02:32:36;;;;;;;11.57;2.97;;;3.70;79.90;;;;;;5016070;28;20116;-75
2022/02/26 02:35:02;;;;;;;7.88;2.40;;;3.70;80.10;;;;;;5021292;28;20117;-74
2022/02/26 02:37:27;;;;;;;7.95;2.67;;;3.70;79.90;;;;;;5013709;28;20029;-76
2022/02/26 02:39:53;;;;;;;8.45;2.90;;;3.60;79.90;;;;;;5020678;28;20071;-74
2022/02/26 02:42:18;;;;;;;9.32;3.72;;;3.70;80.10;;;;;;5016835;28;20046;-75
2022/02/26 02:44:44;;;;;;;9.55;3.58;;;3.70;79.90;;;;;;5016012;28;20026;-74
2022/02/26 02:47:09;;;;;;;12.13;4.47;;;3.70;79.80;;;;;;5019469;28;20109;-74
2022/02/26 02:49:36;;;;;;;8.70;3.10;;;3.70;79.80;;;;;;5013305;28;20037;-74
2022/02/26 02:52:02;;;;;;;8.02;2.92;;;3.70;79.60;;;;;;5022199;28;20037;-75
2022/02/26 02:54:27;;;;;;;7.03;2.75;;;3.70;79.60;;;;;;5023775;28;20025;-75
2022/02/26 02:56:53;;;;;;;10.02;2.72;;;3.70;79.60;;;;;;5024618;28;20578;-75
2022/02/26 02:59:18;;;;;;;8.95;2.60;;;3.60;79.60;;;;;;5023060;28;20052;-75
2022/02/26 03:01:44;;;;;;;5.95;2.50;;;3.60;79.70;;;;;;5023876;28;20030;-75
2022/02/26 03:04:10;;;;;;;5.63;2.40;;;3.50;79.70;;;;;;5017300;28;20076;-75
2022/02/26 03:06:36;;;;;;;12.13;3.20;;;3.50;79.80;;;;;;5022102;28;20030;-76
2022/02/26 03:09:02;;;;;;;8.38;2.80;;;3.60;79.80;;;;;;5017275;28;20393;-74
2022/02/26 03:11:28;;;;;;;11.25;3.10;;;3.50;79.60;;;;;;5023605;28;20478;-74
2022/02/26 03:13:53;;;;;;;9.35;2.90;;;3.50;79.70;;;;;;5010639;28;20033;-74
2022/02/26 03:16:19;;;;;;;8.45;2.85;;;3.50;79.80;;;;;;5017478;28;20026;-75
2022/02/26 03:18:44;;;;;;;7.70;2.42;;;3.40;79.80;;;;;;5009809;28;20026;-75
2022/02/26 03:21:10;;;;;;;9.20;2.80;;;3.30;79.80;;;;;;5019654;28;20583;-75
2022/02/26 03:23:36;;;;;;;7.32;2.72;;;3.40;80.00;;;;;;5009837;28;20053;-75
2022/02/26 03:26:02;;;;;;;8.75;2.85;;;3.40;79.90;;;;;;5016645;28;20503;-75
2022/02/26 03:28:28;;;;;;;8.63;2.88;;;3.40;79.70;;;;;;5021744;28;20480;-75
2022/02/26 03:30:53;;;;;;;9.80;3.30;;;3.40;79.70;;;;;;5021542;28;20032;-75
2022/02/26 03:33:19;;;;;;;7.20;2.47;;;3.40;79.90;;;;;;5014787;28;20037;-75
2022/02/26 03:35:45;;;;;;;8.32;2.97;;;3.40;79.70;;;;;;5018642;28;20034;-75
2022/02/26 03:38:10;;;;;;;9.25;3.05;;;3.40;79.70;;;;;;5015873;28;20025;-75
2022/02/26 03:40:36;;;;;;;13.90;4.70;;;3.40;79.70;;;;;;5020684;28;20022;-75
2022/02/26 03:43:03;;;;;;;7.78;3.80;;;3.40;79.60;;;;;;5018960;28;20029;-75
2022/02/26 03:45:29;;;;;;;8.75;3.20;;;3.30;79.60;;;;;;5019320;28;20034;-75
2022/02/26 03:47:54;;;;;;;8.20;3.55;;;3.30;79.80;;;;;;5016512;28;20436;-75
2022/02/26 03:50:20;;;;;;;9.98;3.10;;;3.40;79.90;;;;;;5022647;28;20097;-75
2022/02/26 03:52:45;;;;;;;6.07;2.72;;;3.40;79.80;;;;;;5015493;28;20049;-75
2022/02/26 03:55:11;;;;;;;10.52;3.40;;;3.30;79.70;;;;;;5023280;28;20031;-75
2022/02/26 03:57:37;;;;;;;8.52;3.17;;;3.40;79.90;;;;;;5009038;28;20400;-76
2022/02/26 04:00:07;;;;;;;7.85;2.80;;;3.40;79.90;;;;;;5028511;28;20045;-75
2022/02/26 04:02:34;;;;;;;8.00;2.90;;;3.30;80.00;;;;;;5019412;28;20033;-76
2022/02/26 04:05:00;;;;;;;8.40;3.13;;;3.30;80.10;;;;;;5018417;28;20029;-74
2022/02/26 04:07:25;;;;;;;7.85;3.58;;;3.30;80.90;;;;;;5017639;28;20029;-75
2022/02/26 04:09:51;;;;;;;7.13;3.05;;;3.30;80.30;;;;;;5015072;28;20542;-74
2022/02/26 04:12:17;;;;;;;6.78;3.13;;;3.30;80.40;;;;;;5022296;28;20045;-75
2022/02/26 04:14:43;;;;;;;12.75;3.85;;;3.30;80.50;;;;;;5016914;28;20033;-74
2022/02/26 04:17:09;;;;;;;6.25;3.10;;;3.30;80.60;;;;;;5012208;28;20504;-75
2022/02/26 04:19:35;;;;;;;9.93;3.45;;;3.30;80.60;;;;;;5013796;28;20032;-74
2022/02/26 04:22:01;;;;;;;7.53;3.17;;;3.40;80.80;;;;;;5020195;28;20034;-74
2022/02/26 04:24:26;;;;;;;8.88;3.70;;;3.40;80.80;;;;;;5021467;28;20039;-75
2022/02/26 04:26:52;;;;;;;8.18;3.60;;;3.40;81.30;;;;;;5019423;28;20017;-74
2022/02/26 04:29:17;;;;;;;10.15;3.95;;;3.40;80.70;;;;;;5017675;28;20041;-75
2022/02/26 04:31:43;;;;;;;7.63;3.50;;;3.40;80.70;;;;;;5013803;28;20400;-75
2022/02/26 04:34:08;;;;;;;9.15;3.85;;;3.50;80.90;;;;;;5013030;28;20037;-76
2022/02/26 04:36:35;;;;;;;9.95;4.40;;;3.50;80.90;;;;;;5022949;28;20038;-75
2022/02/26 04:39:00;;;;;;;8.23;4.25;;;3.50;80.90;;;;;;5008672;28;20373;-75
2022/02/26 04:41:26;;;;;;;7.43;3.83;;;3.50;81.00;;;;;;5018521;28;20033;-76
2022/02/26 04:43:51;;;;;;;9.48;3.88;;;3.60;81.10;;;;;;5010234;28;20030;-76
2022/02/26 04:46:17;;;;;;;5.90;3.42;;;3.60;81.10;;;;;;5023695;28;20088;-77
2022/02/26 04:48:43;;;;;;;9.30;3.45;;;3.60;81.10;;;;;;5014238;28;20025;-76
2022/02/26 04:51:08;;;;;;;7.47;3.58;;;3.60;81.20;;;;;;5021750;28;20077;-76
2022/02/26 04:53:38;;;;;;;8.90;4.20;;;3.60;81.20;;;;;;5018311;28;20037;-76
2022/02/26 04:56:07;;;;;;;7.72;3.60;;;3.60;81.20;;;;;;5020597;28;20018;-76
2022/02/26 04:58:34;;;;;;;9.95;3.80;;;3.60;81.30;;;;;;5019285;28;20033;-76
2022/02/26 05:01:00;;;;;;;5.90;3.47;;;3.50;81.30;;;;;;5013234;28;20034;-75
2022/02/26 05:03:25;;;;;;;12.82;5.35;;;3.60;81.40;;;;;;5020141;28;20125;-78
2022/02/26 05:05:51;;;;;;;16.10;6.55;;;3.50;81.50;;;;;;5017554;28;20033;-75
2022/02/26 05:08:17;;;;;;;9.68;5.20;;;3.50;82.20;;;;;;5012439;28;20551;-75
2022/02/26 05:10:43;;;;;;;10.25;5.20;;;3.50;81.70;;;;;;5018279;28;20378;-74
2022/02/26 05:13:09;;;;;;;10.70;4.70;;;3.50;81.60;;;;;;5009327;28;20042;-75
2022/02/26 05:15:34;;;;;;;11.00;4.55;;;3.40;81.50;;;;;;5020457;28;20434;-74
2022/02/26 05:18:00;;;;;;;11.98;4.95;;;3.40;81.60;;;;;;5012611;28;20040;-74
2022/02/26 05:20:25;;;;;;;10.60;4.40;;;3.40;81.70;;;;;;5020819;28;20028;-75
2022/02/26 05:22:51;;;;;;;8.98;4.35;;;3.40;81.60;;;;;;5019204;28;20032;-74
2022/02/26 05:25:16;;;;;;;7.60;3.80;;;3.40;81.40;;;;;;5013697;28;20030;-73
2022/02/26 05:27:42;;;;;;;7.20;4.05;;;3.40;81.30;;;;;;5007219;28;20047;-74
2022/02/26 05:30:11;;;;;;;10.65;4.60;;;3.30;81.30;;;;;;5017488;28;20025;-74
2022/02/26 05:32:37;;;;;;;8.23;4.20;;;3.30;81.40;;;;;;5019461;28;20037;-74
2022/02/26 05:35:05;;;;;;;10.02;4.72;;;3.30;81.50;;;;;;5011892;28;20551;-75
2022/02/26 05:37:30;;;;;;;8.90;4.85;;;3.30;81.30;;;;;;5014637;28;20029;-75
2022/02/26 05:39:56;;;;;;;8.93;4.00;;;3.30;81.30;;;;;;5014559;28;20392;-74
2022/02/26 05:42:22;;;;;;;11.77;5.05;;;3.30;81.10;;;;;;5020088;28;20054;-75
2022/02/26 05:44:47;;;;;;;8.40;4.25;;;3.30;81.10;;;;;;5013613;28;20120;-76
2022/02/26 05:47:13;;;;;;;7.57;4.43;;;3.20;80.90;;;;;;5027289;28;20115;-75
2022/02/26 05:49:39;;;;;;;9.27;4.38;;;3.20;81.00;;;;;;5019578;28;20028;-75
2022/02/26 05:52:05;;;;;;;11.75;5.05;;;3.10;81.20;;;;;;5017417;28;20047;-75
2022/02/26 05:54:31;;;;;;;8.85;4.55;;;3.10;81.10;;;;;;5019212;28;20053;-75
2022/02/26 05:56:56;;;;;;;9.98;4.75;;;3.10;81.00;;;;;;5020821;28;20053;-75
2022/02/26 05:59:22;;;;;;;9.07;4.80;;;3.00;80.90;;;;;;5015773;28;20481;-77
2022/02/26 06:01:47;;;;;;;11.10;4.47;;;2.90;81.10;;;;;;5022956;28;20123;-76
2022/02/26 06:04:13;;;;;;;8.23;4.60;;;3.00;81.20;;;;;;5014267;28;20017;-75
2022/02/26 06:06:38;;;;;;;9.65;4.28;;;2.90;81.00;;;;;;5020374;28;20500;-76
2022/02/26 06:09:04;;;;;;;9.75;4.82;;;2.90;81.10;;;;;;5016891;28;20585;-76
2022/02/26 06:11:29;;;;;;;9.80;4.93;;;2.90;81.20;;;;;;5012390;28;20029;-75
2022/02/26 06:13:55;;;;;;;9.88;5.00;;;2.90;81.20;;;;;;5020752;28;20602;-75
2022/02/26 06:16:21;;;;;;;8.50;4.63;;;2.90;81.10;;;;;;5017822;28;20039;-76
2022/02/26 06:18:46;;;;;;;10.10;4.78;;;2.90;81.00;;;;;;5019702;28;20037;-76
2022/02/26 06:21:12;;;;;;;9.23;4.65;;;2.80;81.80;;;;;;5021201;28;20060;-75
2022/02/26 06:23:37;;;;;;;10.32;5.00;;;2.80;81.20;;;;;;5020479;28;20110;-76
2022/02/26 06:26:03;;;;;;;7.45;4.70;;;2.90;81.00;;;;;;5022945;28;20018;-75
2022/02/26 06:28:29;;;;;;;9.80;4.72;;;2.80;80.90;;;;;;5020162;28;20510;-75
2022/02/26 06:30:54;;;;;;;9.80;4.85;;;2.80;81.00;;;;;;5018998;28;20022;-73
2022/02/26 06:33:20;;;;;;;8.73;4.90;;;2.80;81.00;;;;;;5023701;28;20108;-73
2022/02/26 06:35:45;;;;;;;9.75;4.60;;;2.80;81.00;;;;;;5012535;28;20460;-73
2022/02/26 06:38:12;;;;;;;10.43;4.75;;;2.80;80.90;;;;;;5024197;28;20036;-74
2022/02/26 06:40:38;;;;;;;10.40;4.72;;;2.90;80.90;;;;;;5011708;28;20370;-74
2022/02/26 06:43:04;;;;;;;11.85;5.00;;;2.90;80.80;;;;;;5024354;28;20036;-74
2022/02/26 06:45:30;;;;;;;9.45;4.85;;;2.90;80.70;;;;;;5010380;28;20026;-74
2022/02/26 06:47:56;;;;;;;7.13;4.22;;;2.90;80.90;;;;;;5016272;28;20088;-74
2022/02/26 06:50:22;;;;;;;11.20;5.18;;;2.90;80.90;;;;;;5018088;28;20496;-74
2022/02/26 06:52:48;;;;;;;7.75;4.60;;;2.90;80.80;;;;;;5012912;28;20046;-75
2022/02/26 06:55:14;;;;;;;7.18;4.38;;;3.00;80.70;;;;;;5021870;28;20507;-74
2022/02/26 06:57:40;;;;;;;9.25;4.18;;;2.90;80.60;;;;;;5017397;28;20026;-74
2022/02/26 07:00:06;;;;;;;9.45;4.75;;;3.00;80.70;;;;;;5019452;28;20029;-74
2022/02/26 07:02:33;;;;;;;9.73;4.38;;;3.00;80.70;;;;;;5021907;28;20484;-74
2022/02/26 07:04:58;;;;;;;8.25;3.92;;;3.00;80.50;;;;;;5013189;28;20057;-74
2022/02/26 07:07:24;;;;;;;10.25;4.07;;;3.00;80.50;;;;;;5019317;28;20115;-73
2022/02/26 07:09:50;;;;;;;8.38;4.40;;;3.10;80.60;;;;;;5012125;28;20025;-73
2022/02/26 07:12:19;;;;;;;9.25;4.63;;;3.20;80.50;;;;;;5022264;28;20034;-74
2022/02/26 07:14:45;;;;;;;7.78;4.05;;;3.30;80.40;;;;;;5011918;28;20033;-74
2022/02/26 07:17:11;;;;;;;9.32;3.95;;;3.30;80.20;;;;;;5011318;28;20030;-75
2022/02/26 07:19:36;;;;;;;9.90;3.60;;;3.30;80.10;;;;;;5017645;28;20029;-74
2022/02/26 07:22:02;;;;;;;10.68;4.25;;;3.40;80.00;;;;;;5014000;28;20092;-75
2022/02/26 07:24:28;;;;;;;7.53;4.22;;;3.40;80.10;;;;;;5016830;28;20041;-81
2022/02/26 07:26:54;;;;;;;11.20;4.85;;;3.50;80.10;;;;;;5009459;28;20062;-74
2022/02/26 07:29:19;;;;;;;8.55;3.97;;;3.60;80.00;;;;;;5008746;28;20034;-73
2022/02/26 07:31:45;;;;;;;9.35;3.95;;;3.60;79.90;;;;;;5008660;28;20055;-73
2022/02/26 07:34:11;;;;;;;10.82;4.68;;;3.70;79.90;;;;;;5010239;28;20079;-73
2022/02/26 07:36:36;;;;;;;8.90;4.28;;;3.70;79.90;;;;;;5006854;28;20022;-75
2022/02/26 07:39:03;;;;;;;9.77;4.43;;;3.80;80.10;;;;;;5006979;28;20049;-74
2022/02/26 07:41:29;;;;;;;8.50;3.92;;;3.80;80.10;;;;;;5006923;28;20085;-75
2022/02/26 07:43:54;;;;;;;8.20;4.30;;;3.90;80.00;;;;;;4989161;28;20052;-75
2022/02/26 07:46:20;;;;;;;7.82;4.05;;;4.00;80.00;;;;;;5004562;28;20026;-74
2022/02/26 07:48:45;;;;;;;8.55;4.15;;;4.10;80.10;;;;;;5004433;28;20101;-75
2022/02/26 07:51:11;;;;;;;12.20;4.70;;;4.20;80.00;;;;;;5007142;28;20025;-74
2022/02/26 07:53:36;;;;;;;9.70;4.20;;;4.30;79.90;;;;;;5007022;28;20046;-74
2022/02/26 07:56:02;;;;;;;7.03;4.20;;;4.40;79.90;;;;;;5009233;28;20054;-74
2022/02/26 07:58:28;;;;;;;8.93;4.20;;;4.50;79.90;;;;;;5007905;28;20080;-74
2022/02/26 08:00:54;;;;;;;8.23;4.60;;;4.60;79.80;;;;;;5008376;28;20028;-74
2022/02/26 08:03:19;;;;;;;11.85;4.90;;;4.70;79.80;;;;;;5007497;28;20400;-74
2022/02/26 08:05:45;;;;;;;9.80;4.57;;;4.70;79.90;;;;;;5006855;28;20463;-74
2022/02/26 08:08:10;;;;;;;10.68;5.30;;;4.80;80.00;;;;;;5006563;28;20037;-74
2022/02/26 08:10:36;;;;;;;12.75;5.28;;;4.90;80.20;;;;;;5007990;28;20046;-75
2022/02/26 08:13:02;;;;;;;10.88;5.40;;;5.00;80.20;;;;;;5006406;28;20050;-75
2022/02/26 08:15:28;;;;;;;13.05;5.32;;;5.10;80.10;;;;;;5004246;28;20034;-74
2022/02/26 08:17:55;;;;;;;9.63;4.40;;;5.10;80.40;;;;;;5004227;28;20551;-75
2022/02/26 08:20:24;;;;;;;9.57;4.43;;;5.20;80.10;;;;;;5007164;28;20026;-74
2022/02/26 08:22:50;;;;;;;10.15;4.63;;;5.30;80.20;;;;;;5006550;28;20104;-75
2022/02/26 08:25:16;;;;;;;9.20;4.70;;;5.30;80.20;;;;;;5009705;28;20022;-74
2022/02/26 08:27:43;;;;;;;10.57;4.55;;;5.40;80.10;;;;;;4996200;28;20393;-73
2022/02/26 08:30:12;;;;;;;10.88;5.47;;;5.50;80.20;;;;;;4999765;28;20396;-73
2022/02/26 08:32:37;;;;;;;12.38;4.80;;;5.50;80.20;;;;;;5000187;28;20034;-73
2022/02/26 08:35:04;;;;;;;9.68;4.32;;;5.60;80.20;;;;;;5005110;28;20101;-73
2022/02/26 08:37:30;;;;;;;7.07;4.05;;;5.70;80.20;;;;;;5006092;28;20025;-73
2022/02/26 08:39:56;;;;;;;8.18;3.35;;;5.70;80.10;;;;;;5002173;28;20029;-72
2022/02/26 08:42:22;;;;;;;7.30;3.58;;;5.80;80.20;;;;;;5004055;28;20118;-73
2022/02/26 08:44:48;;;;;;;7.18;3.13;;;5.80;80.30;;;;;;5003652;28;20061;-72
2022/02/26 08:47:13;;;;;;;12.77;3.92;;;5.90;80.40;;;;;;5004462;28;20026;-73
2022/02/26 08:49:39;;;;;;;12.93;4.47;;;6.00;80.50;;;;;;5007758;28;20017;-72
2022/02/26 08:52:06;;;;;;;10.18;3.85;;;6.00;80.40;;;;;;5007936;28;20048;-74
2022/02/26 08:54:32;;;;;;;8.27;3.40;;;6.10;80.40;;;;;;5003941;28;20045;-75
2022/02/26 08:56:58;;;;;;;12.13;3.67;;;6.10;80.40;;;;;;5001146;28;20018;-74
2022/02/26 08:59:24;;;;;;;9.45;4.35;;;6.20;80.40;;;;;;5004566;28;20034;-75
2022/02/26 09:01:50;;;;;;;6.38;3.38;;;6.20;80.50;;;;;;5009559;28;20037;-76
2022/02/26 09:04:15;;;;;;;10.43;2.85;;;6.30;80.30;;;;;;5009460;28;20430;-75
2022/02/26 09:06:42;;;;;;;14.55;3.72;;;6.30;80.20;;;;;;5004006;28;20084;-75
2022/02/26 09:09:10;;;;;;;9.15;2.97;;;6.40;80.20;;;;;;5006595;28;20013;-74
2022/02/26 09:11:37;;;;;;;6.35;2.67;;;6.40;80.10;;;;;;5002066;28;20034;-74
2022/02/26 09:14:04;;;;;;;8.13;2.47;;;6.50;80.10;;;;;;5011938;28;20072;-74
2022/02/26 09:16:29;;;;;;;14.32;2.88;;;6.50;79.90;;;;;;5010524;28;20033;-74
2022/02/26 09:18:55;;;;;;;11.73;2.70;;;6.60;80.00;;;;;;5012071;28;20083;-73
2022/02/26 09:21:21;;;;;;;9.82;2.35;;;6.70;79.90;;;;;;5021327;28;20029;-73
2022/02/26 09:23:46;;;;;;;8.23;2.58;;;6.70;79.60;;;;;;5015337;28;20880;-74
2022/02/26 09:26:12;;;;;;;14.25;3.60;;;6.90;79.50;;;;;;5012694;28;20045;-73
2022/02/26 09:28:41;;;;;;;6.70;2.22;;;6.90;79.50;;;;;;5014151;28;20052;-75
2022/02/26 09:31:08;;;;;;;10.90;2.40;;;6.90;79.50;;;;;;5018906;28;20024;-74
2022/02/26 09:33:34;;;;;;;7.85;2.47;;;7.00;79.40;;;;;;5019329;28;20042;-73
2022/02/26 09:36:02;;;;;;;16.13;5.30;;;7.00;79.40;;;;;;5011123;28;20018;-73
2022/02/26 09:38:29;;;;;;;11.90;5.40;;;7.10;79.80;;;;;;5010510;28;20036;-73
2022/02/26 09:40:57;;;;;;;12.93;5.10;;;7.20;79.50;;;;;;5009333;28;20038;-75
2022/02/26 09:43:24;;;;;;;14.70;5.00;;;7.20;79.30;;;;;;5007327;28;20160;-74
2022/02/26 09:45:51;;;;;;;8.15;3.10;;;7.30;79.20;;;;;;5012496;28;20032;-74
2022/02/26 09:48:18;;;;;;;11.18;3.47;;;7.30;79.10;;;;;;5010754;28;20033;-74
2022/02/26 09:50:44;;;;;;;6.22;2.53;;;7.30;79.00;;;;;;5004443;28;20021;-76
2022/02/26 09:53:11;;;;;;;13.93;2.83;;;7.40;78.80;;;;;;5007926;28;20115;-76
2022/02/26 09:55:38;;;;;;;6.57;2.53;;;7.40;78.30;;;;;;5009371;28;20064;-76
2022/02/26 09:58:04;;;;;;;4.90;2.08;;;7.40;78.30;;;;;;5006547;28;20033;-74
2022/02/26 10:00:31;;;;;;;8.23;3.00;;;7.40;78.20;;;;;;5010150;28;20030;-75
2022/02/26 10:02:56;;;;;;;7.80;2.88;;;7.50;78.20;;;;;;5010240;28;20029;-75
2022/02/26 10:05:22;;;;;;;13.27;4.28;;;7.50;78.10;;;;;;5006410;28;20028;-75
2022/02/26 10:07:50;;;;;;;12.95;5.28;;;7.50;77.90;;;;;;5007900;28;20033;-74
2022/02/26 10:10:21;;;;;;;9.50;4.05;;;7.50;77.90;;;;;;5001867;28;20084;-75
2022/02/26 10:12:53;;;;;;;7.10;3.80;;;7.50;77.80;;;;;;4999552;28;20033;-75
2022/02/26 10:15:23;;;;;;;13.63;5.55;;;7.50;77.80;;;;;;5007131;28;20042;-76
2022/02/26 10:18:01;;;;;;;11.68;4.72;;;7.50;77.70;;;;;;5009364;28;20117;-76
2022/02/26 10:20:27;;;;;;;8.40;4.40;;;7.60;77.80;;;;;;5005993;28;20037;-77
2022/02/26 10:22:53;;;;;;;15.27;4.80;;;7.70;77.70;;;;;;5009479;28;20083;-77
2022/02/26 10:25:23;;;;;;;11.13;3.97;;;7.60;77.40;;;;;;5005486;28;20033;-76
2022/02/26 10:27:53;;;;;;;12.90;4.72;;;7.70;77.60;;;;;;5001104;28;20029;-76
2022/02/26 10:30:27;;;;;;;7.18;3.10;;;7.70;77.30;;;;;;5003565;28;20041;-75
2022/02/26 10:33:17;;;;;;;10.02;3.20;;;7.80;77.30;;;;;;5006390;28;20420;-76
2022/02/26 10:35:46;;;;;;;13.70;3.97;;;7.80;77.20;;;;;;5006054;28;20053;-75
2022/02/26 10:38:23;;;;;;;11.05;3.17;;;7.90;76.70;;;;;;5006129;28;20034;-75
2022/02/26 10:41:11;;;;;;;8.88;3.28;;;7.80;76.60;;;;;;5007786;28;20076;-74
2022/02/26 10:43:44;;;;;;;14.05;3.30;;;7.80;76.50;;;;;;5007227;28;20018;-78
2022/02/26 10:46:20;;;;;;;12.93;3.70;;;7.80;76.40;;;;;;5008475;28;20021;-75
2022/02/26 10:48:46;;;;;;;12.88;3.53;;;7.90;76.40;;;;;;5008876;28;20488;-75
2022/02/26 10:51:18;;;;;;;11.68;3.30;;;7.90;76.20;;;;;;5009549;28;20358;-75
2022/02/26 10:53:44;;;;;;;12.13;3.50;;;7.90;76.00;;;;;;5009062;28;20128;-75
2022/02/26 10:56:11;;;;;;;11.70;3.90;;;7.90;75.90;;;;;;5007580;28;20581;-75
2022/02/26 10:58:37;;;;;;;15.85;3.90;;;7.90;75.80;;;;;;5006354;28;20053;-75
2022/02/26 11:01:12;;;;;;;12.07;3.80;;;7.90;75.50;;;;;;5006486;28;20029;-74
2022/02/26 11:03:38;;;;;;;9.65;3.50;;;7.90;75.00;;;;;;5005984;28;20026;-75
2022/02/26 11:06:07;;;;;;;11.07;3.30;;;7.90;75.10;;;;;;5010805;28;20168;-75
2022/02/26 11:08:34;;;;;;;12.25;4.03;;;7.90;75.10;;;;;;5011160;28;20030;-75
2022/02/26 11:11:03;;;;;;;9.18;3.28;;;8.10;74.40;;;;;;5009576;28;20030;-75
2022/02/26 11:13:30;;;;;;;13.65;4.47;;;8.10;73.60;;;;;;5007550;28;20044;-75
2022/02/26 11:16:01;;;;;;;12.48;3.70;;;8.10;73.30;;;;;;5010657;28;20382;-75
2022/02/26 11:18:37;;;;;;;7.07;3.25;;;8.10;72.90;;;;;;5007833;28;20029;-74
2022/02/26 11:21:08;;;;;;;5.88;2.85;;;8.10;73.10;;;;;;5007032;28;20025;-76
2022/02/26 11:23:36;;;;;;;10.25;3.67;;;8.20;73.10;;;;;;5008892;28;20041;-75
2022/02/26 11:26:02;;;;;;;8.63;2.65;;;8.20;72.20;;;;;;5007388;28;20026;-76
2022/02/26 11:28:28;;;;;;;7.22;2.03;;;8.20;72.10;;;;;;5007092;28;20397;-76
2022/02/26 11:30:59;;;;;;;9.85;2.40;;;8.20;71.30;;;;;;5011864;28;20591;-76
2022/02/26 11:33:26;;;;;;;8.80;2.53;;;8.20;70.90;;;;;;5008813;28;20038;-76
2022/02/26 11:35:53;;;;;;;7.13;2.22;;;8.30;70.70;;;;;;5013215;28;20428;-76
2022/02/26 11:38:22;;;;;;;9.70;2.80;;;8.40;69.90;;;;;;5008513;28;20029;-76
2022/02/26 11:40:49;;;;;;;8.57;2.72;;;8.40;69.10;;;;;;5012671;28;20048;-75
2022/02/26 11:43:36;;;;;;;9.20;2.35;;;8.40;69.80;;;;;;5017600;28;20031;-75
2022/02/26 11:46:21;;;;;;;9.15;2.20;;;8.40;65.90;;;;;;5011767;28;20022;-75
2022/02/26 11:48:47;;;;;;;7.50;2.08;;;8.50;66.80;;;;;;5004365;28;20022;-76
2022/02/26 11:51:14;;;;;;;4.43;1.70;;;8.50;64.50;;;;;;5008289;28;20545;-75
2022/02/26 11:53:43;;;;;;;7.50;1.92;;;8.50;64.70;;;;;;5008101;28;20034;-76
2022/02/26 11:56:10;;;;;;;8.82;2.60;;;8.50;65.60;;;;;;5017848;28;20032;-74
2022/02/26 11:58:37;;;;;;;10.68;3.60;;;8.60;65.60;;;;;;5006186;28;20472;-76
2022/02/26 12:01:15;;;;;;;8.48;2.70;;;8.50;65.30;;;;;;5007639;28;20026;-74
2022/02/26 12:03:41;;;;;;;7.18;2.40;;;8.60;66.10;;;;;;5008413;28;20018;-75
2022/02/26 12:06:11;;;;;;;6.30;2.20;;;8.60;64.60;;;;;;5009304;28;20045;-76
2022/02/26 12:08:38;;;;;;;6.03;2.28;;;8.50;64.60;;;;;;5013124;28;20014;-76
2022/02/26 12:11:08;;;;;;;10.85;2.65;;;8.60;64.60;;;;;;5007133;28;20030;-76
2022/02/26 12:13:37;;;;;;;12.55;2.60;;;8.60;64.90;;;;;;5006801;28;20168;-75
2022/02/26 12:16:19;;;;;;;7.13;2.42;;;8.60;65.40;;;;;;5008332;28;20083;-76
2022/02/26 12:19:08;;;;;;;6.22;2.35;;;8.80;64.50;;;;;;5005833;28;20038;-76
2022/02/26 12:21:43;;;;;;;8.45;2.25;;;9.00;63.80;;;;;;5005925;28;20113;-75
2022/02/26 12:24:15;;;;;;;7.53;2.35;;;9.20;62.60;;;;;;5007227;28;20041;-75
2022/02/26 12:26:42;;;;;;;8.38;2.85;;;9.10;61.50;;;;;;5010548;28;20501;-75
2022/02/26 12:29:08;;;;;;;6.70;1.90;;;9.10;60.80;;;;;;5017512;28;20034;-76
2022/02/26 12:31:41;;;;;;;7.93;2.50;;;9.20;61.20;;;;;;5011969;28;20061;-76
2022/02/26 12:34:18;;;;;;;7.45;2.33;;;9.40;60.90;;;;;;5004848;28;20091;-73
2022/02/26 12:37:12;;;;;;;5.90;2.05;;;9.60;60.60;;;;;;5008987;28;20022;-75
2022/02/26 12:39:39;;;;;;;8.20;2.22;;;9.90;60.80;;;;;;5011805;28;20038;-73
2022/02/26 12:42:08;;;;;;;10.70;2.60;;;10.00;60.10;;;;;;5011678;28;20029;-73
2022/02/26 12:44:38;;;;;;;9.48;2.70;;;10.10;59.70;;;;;;5010906;28;20033;-74
2022/02/26 12:47:06;;;;;;;7.85;2.25;;;10.20;59.80;;;;;;5006543;28;20021;-73
2022/02/26 12:49:33;;;;;;;9.18;2.83;;;10.30;60.20;;;;;;5009915;28;20476;-75
2022/02/26 12:51:59;;;;;;;7.72;2.47;;;10.30;58.60;;;;;;5011911;28;20540;-75